METAR Data
IDs: Format: Raw Decoded Include TAF

Data at: 1316 UTC 10 Aug 2022

KWJF 101256Z AUTO 30006KT 10SM CLR 22/06 A3005 RMK AO2 SLP152 T02220061
KWJF 101156Z AUTO 30008KT 10SM CLR 24/04 A3003 RMK AO2 SLP145 T02390039 10272 20222 58001
KWJF 101056Z AUTO 25010KT 10SM CLR 24/04 A3004 RMK AO2 SLP145 T02440044
KWJF 100956Z AUTO 23006KT 10SM CLR 25/04 A3004 RMK AO2 SLP144 T02500044
KWJF 100856Z AUTO 25008KT 10SM CLR 26/04 A3003 RMK AO2 SLP144 T02560039 51000
KWJF 100756Z AUTO 24007KT 10SM CLR 26/06 A3003 RMK AO2 SLP144 T02610056 403780261
KWJF 100656Z AUTO 24011KT 10SM CLR 27/05 A3004 RMK AO2 SLP144 T02720050
KWJF 100556Z AUTO 23009KT 10SM CLR 27/06 A3003 RMK AO2 SLP144 T02720061 10356 20272 51021
KWJF 100456Z AUTO 24012KT 10SM CLR 28/06 A3002 RMK AO2 SLP140 T02830056
KWJF 100356Z 25009KT 10SM CLR 29/07 A3000 RMK AO2 SLP132 T02890072
KWJF 100256Z 24015KT 10SM CLR 31/08 A2997 RMK AO2 SLP122 T03110083 53009
KWJF 100156Z 25016KT 10SM CLR 33/06 A2996 RMK AO2 SLP120 T03330061
KWJF 100056Z 23018G24KT 10SM CLR 34/06 A2994 RMK AO2 PK WND 23028/0014 SLP113 T03440056
KWJF 092356Z 24019G24KT 10SM CLR 36/04 A2994 RMK AO2 PK WND 24027/2343 SLP111 T03560039 10378 20350 56012
KWJF 092256Z 24017KT 10SM CLR 37/04 A2995 RMK AO2 SLP113 T03670039
KWJF 092156Z 23015G24KT 10SM CLR 37/07 A2995 RMK AO2 PK WND 22027/2109 SLP115 T03670067
KWJF 092056Z 21015G23KT 10SM CLR 37/07 A2998 RMK AO2 SLP123 T03670072 57012
KWJF 091956Z 24013G18KT 10SM CLR 36/06 A2999 RMK AO2 SLP127 T03610056
KWJF 091856Z 25011KT 10SM CLR 36/02 A3000 RMK AO2 SLP133 T03560022
KWJF 091756Z 23009G14KT 10SM CLR 35/M01 A3002 RMK AO2 SLP137 T03501011 10350 20267 50000
KWJF 091656Z 25012KT 10SM CLR 34/M01 A3002 RMK AO2 SLP138 T03391006
KWJF 091556Z 25010KT 10SM CLR 32/M01 A3002 RMK AO2 SLP139 T03221011
KWJF 091456Z 25009KT 10SM CLR 29/03 A3001 RMK AO2 SLP138 T02940033 51012
KWJF 091356Z 27009KT 10SM CLR 27/05 A3000 RMK AO2 SLP135 T02670050
KWJF 091256Z AUTO 27009KT 10SM FEW110 27/06 A2999 RMK AO2 SLP129 T02670061
KWJF 091156Z AUTO 26011KT 10SM CLR 27/06 A2998 RMK AO2 SLP123 T02720061 10289 20267 52002
KWJF 091056Z AUTO 25005KT 10SM CLR 27/03 A2997 RMK AO2 SLP121 T02720028
KWJF 090956Z AUTO 24007KT 10SM CLR 27/03 A2997 RMK AO2 SLP121 T02720033
KWJF 090856Z AUTO 28007KT 10SM CLR 28/02 A2997 RMK AO2 SLP120 T02780022 58007
KWJF 090756Z AUTO 25010KT 10SM CLR 28/04 A2999 RMK AO2 SLP125 T02780039 403940211
KWJF 090656Z AUTO 25010KT 10SM CLR 28/02 A3000 RMK AO2 SLP129 T02780022
KWJF 090556Z AUTO 24011KT 10SM CLR 28/04 A2999 RMK AO2 SLP128 T02830044 10372 20283 50014
KWJF 090456Z AUTO 24011KT 10SM FEW110 29/05 A3000 RMK AO2 SLP132 T02940050
KWJF 090356Z AUTO 25013KT 10SM FEW110 31/07 A2997 RMK AO2 SLP124 T03060072
KWJF 090256Z 25018KT 10SM SCT110 32/11 A2995 RMK AO2 SLP117 T03170106 53013
KWJF 090156Z 24016G22KT 10SM CLR 33/12 A2991 RMK AO2 PK WND 23027/0124 SLP104 T03330117